Aviation Digital Data Service (ADDS)

Output produced by METARs form (0529 UTC 24 January 2019)
found at http://www.aviationweather.gov/metar/data/
 
Forecast for: VVTS (HO CHI MINH/TANS, VN)
Text: TAF VVTS 232300Z 2400/2506 03008KT 9999 SCT017 SCT040
Forecast period: 0000 to 0700 UTC 24 January 2019
Forecast type: FROM: standard forecast or significant change
Winds: from the NNE (30 degrees) at 9 MPH (8 knots; 4.1 m/s)
Visibility: 6 or more miles 10+ km)
Ceiling: at least 12,000 feet AGL
Clouds: scattered clouds at 1700 feet AGL
scattered clouds at 4000 feet AGL
Weather: no significant weather forecast for this period
Text: BECMG 2407/2408 15010KT
Forecast period: 0700 UTC 24 January 2019 to 0600 UTC 25 January 2019
Forecast type: BECOMING: Conditions expected to become as follows by 0800 UTC 24 January 2019
Winds: from the SSE (150 degrees) at 12 MPH (10 knots; 5.1 m/s)
Visibility: 6 or more miles 10+ km)
Ceiling: at least 12,000 feet AGL
Clouds: scattered clouds at 1700 feet AGL
scattered clouds at 4000 feet AGL
Weather: no significant weather forecast for this period